createdAt,value
2023-05-01T00:02:03.949Z,12.07
2023-05-01T00:04:34.513Z,10.63
2023-05-01T00:07:02.988Z,9.17
2023-05-01T00:09:32.333Z,10.73
2023-05-01T00:12:00.513Z,10.00
2023-05-01T00:14:30.294Z,9.50
2023-05-01T00:16:58.542Z,10.10
2023-05-01T00:19:28.215Z,9.90
2023-05-01T00:21:56.553Z,10.23
2023-05-01T00:24:24.817Z,12.83
2023-05-01T00:26:53.176Z,10.00
2023-05-01T00:29:21.671Z,9.70
2023-05-01T00:31:49.892Z,10.03
2023-05-01T00:34:18.174Z,9.03
2023-05-01T00:36:49.717Z,9.50
2023-05-01T00:39:18.180Z,9.80
2023-05-01T00:41:46.289Z,8.90
2023-05-01T00:44:14.901Z,8.87
2023-05-01T00:46:43.653Z,8.30
2023-05-01T00:49:11.876Z,8.43
2023-05-01T00:51:41.313Z,8.83
2023-05-01T00:54:11.263Z,8.60
2023-05-01T00:56:39.746Z,8.87
2023-05-01T00:59:08.176Z,9.63
2023-05-01T01:04:34.539Z,8.40
2023-05-01T01:10:55.534Z,8.77
2023-05-01T01:17:10.638Z,9.37
2023-05-01T01:20:12.490Z,9.13
2023-05-01T01:26:35.292Z,12.93
2023-05-01T01:29:42.853Z,8.90
2023-05-01T01:36:02.610Z,9.03
2023-05-01T01:38:37.827Z,9.27
2023-05-01T01:41:11.402Z,8.57
2023-05-01T01:43:44.005Z,8.47
2023-05-01T01:46:13.142Z,8.00
2023-05-01T01:48:45.049Z,8.60
2023-05-01T01:54:59.762Z,8.60
2023-05-01T01:57:29.478Z,9.30
2023-05-01T01:59:59.330Z,8.63
2023-05-01T02:02:30.869Z,9.27
2023-05-01T02:08:41.984Z,9.40
2023-05-01T02:14:57.324Z,8.60
2023-05-01T02:21:07.370Z,9.23
2023-05-01T02:27:21.539Z,9.57
2023-05-01T02:33:35.306Z,9.70
2023-05-01T02:39:45.173Z,9.47
2023-05-01T02:42:17.253Z,8.90
2023-05-01T02:44:52.235Z,9.77
2023-05-01T02:47:23.970Z,9.23
2023-05-01T02:49:55.765Z,9.80
2023-05-01T02:52:25.192Z,10.43
2023-05-01T02:54:54.269Z,10.20
2023-05-01T02:57:22.812Z,10.37
2023-05-01T02:59:51.236Z,9.40
2023-05-01T03:02:20.073Z,10.10
2023-05-01T03:04:48.803Z,9.67
2023-05-01T03:07:18.830Z,9.70
2023-05-01T03:09:47.510Z,10.77
2023-05-01T03:12:16.199Z,10.47
2023-05-01T03:14:44.792Z,14.80
2023-05-01T03:17:13.424Z,10.17
2023-05-01T03:19:42.682Z,10.60
2023-05-01T03:22:11.919Z,10.20
2023-05-01T03:24:42.090Z,11.10
2023-05-01T03:27:10.640Z,12.97
2023-05-01T03:33:20.654Z,12.20
2023-05-01T03:35:49.396Z,11.20
2023-05-01T03:38:17.811Z,10.50
2023-05-01T03:40:48.074Z,11.20
2023-05-01T03:43:16.715Z,11.03
2023-05-01T03:45:46.309Z,13.70
2023-05-01T03:48:15.216Z,11.37
2023-05-01T03:50:44.006Z,10.47
2023-05-01T03:53:13.210Z,10.17
2023-05-01T03:55:42.354Z,10.37
2023-05-01T03:58:12.928Z,10.07
2023-05-01T04:04:22.706Z,10.03
2023-05-01T04:07:28.588Z,10.07
2023-05-01T04:13:39.746Z,10.70
2023-05-01T04:19:50.641Z,11.53
2023-05-01T04:22:19.674Z,11.00
2023-05-01T04:24:48.277Z,10.40
2023-05-01T04:27:18.062Z,10.67
2023-05-01T04:29:48.019Z,10.77
2023-05-01T04:32:18.918Z,12.10
2023-05-01T04:34:47.615Z,14.40
2023-05-01T04:37:18.038Z,12.57
2023-05-01T04:39:46.484Z,13.73
2023-05-01T04:42:14.952Z,13.40
2023-05-01T04:44:43.440Z,16.03
2023-05-01T04:47:13.397Z,15.50
2023-05-01T04:49:42.068Z,13.40
2023-05-01T04:52:10.829Z,12.70
2023-05-01T04:54:39.206Z,17.13
2023-05-01T04:57:07.721Z,13.57
2023-05-01T04:59:36.107Z,13.97
2023-05-01T05:02:04.816Z,16.30
2023-05-01T05:04:35.075Z,15.57
2023-05-01T05:07:03.683Z,15.53
2023-05-01T05:09:32.084Z,15.20
2023-05-01T05:12:01.060Z,15.40
2023-05-01T05:14:29.625Z,14.80
2023-05-01T05:16:58.489Z,15.67
2023-05-01T05:19:27.523Z,13.70
2023-05-01T05:21:57.541Z,15.10
2023-05-01T05:24:26.387Z,14.20
2023-05-01T05:26:55.033Z,14.57
2023-05-01T05:29:23.509Z,16.10
2023-05-01T05:31:52.099Z,14.87
2023-05-01T05:34:20.682Z,18.60
2023-05-01T05:36:49.123Z,15.60
2023-05-01T05:39:20.648Z,17.13
2023-05-01T05:41:49.377Z,13.80
2023-05-01T05:44:20.083Z,14.63
2023-05-01T05:46:48.699Z,14.13
2023-05-01T05:49:17.140Z,13.83
2023-05-01T05:51:46.327Z,13.80
2023-05-01T05:54:14.841Z,15.07
2023-05-01T05:56:44.855Z,18.27
2023-05-01T05:59:14.815Z,19.30
2023-05-01T06:01:45.912Z,20.33
2023-05-01T06:04:15.348Z,24.43
2023-05-01T06:06:43.994Z,27.97
2023-05-01T06:09:13.069Z,30.50
2023-05-01T06:11:41.933Z,32.13
2023-05-01T06:14:11.833Z,30.37
2023-05-01T06:16:40.307Z,37.73
2023-05-01T06:19:10.456Z,33.40
2023-05-01T06:21:41.085Z,34.93
2023-05-01T06:27:51.242Z,37.37
2023-05-01T06:30:57.029Z,38.93
2023-05-01T06:33:27.411Z,36.63
2023-05-01T06:35:56.360Z,38.93
2023-05-01T06:38:26.930Z,39.07
2023-05-01T06:40:56.956Z,40.97
2023-05-01T06:43:28.201Z,44.60
2023-05-01T06:47:00.189Z,40.90
2023-05-01T06:50:03.618Z,43.73
2023-05-01T06:53:00.146Z,42.80
2023-05-01T06:55:32.085Z,43.63
2023-05-01T06:58:06.897Z,46.33
2023-05-01T07:00:41.293Z,44.70
2023-05-01T07:03:10.086Z,45.00
2023-05-01T07:05:40.480Z,49.80
2023-05-01T07:08:09.750Z,56.30
2023-05-01T07:10:40.456Z,46.63
2023-05-01T07:13:10.481Z,51.10
2023-05-01T07:15:39.552Z,54.20
2023-05-01T07:18:08.504Z,50.03
2023-05-01T07:20:37.413Z,50.37
2023-05-01T07:23:07.811Z,49.57
2023-05-01T07:25:37.741Z,52.20
2023-05-01T07:28:08.212Z,53.90
2023-05-01T07:30:38.010Z,48.73
2023-05-01T07:33:09.435Z,52.33
2023-05-01T07:35:38.114Z,57.40
2023-05-01T07:38:07.974Z,61.93
2023-05-01T07:40:36.838Z,50.87
2023-05-01T07:43:05.617Z,48.57
2023-05-01T07:45:34.065Z,51.53
2023-05-01T07:48:02.725Z,51.63
2023-05-01T07:50:31.429Z,49.80
2023-05-01T07:53:00.007Z,46.97
2023-05-01T07:55:29.929Z,49.07
2023-05-01T07:58:36.303Z,45.70
2023-05-01T08:04:48.522Z,42.57
2023-05-01T08:07:17.103Z,43.97
2023-05-01T08:09:51.674Z,40.00
2023-05-01T08:16:06.283Z,42.73
2023-05-01T08:25:28.417Z,40.80
2023-05-01T08:27:56.903Z,42.97
2023-05-01T08:30:26.404Z,37.27
2023-05-01T08:32:56.462Z,36.73
2023-05-01T08:35:40.069Z,35.10
2023-05-01T08:38:09.053Z,35.33
2023-05-01T08:44:19.033Z,40.50
2023-05-01T08:46:49.945Z,37.10
2023-05-01T08:49:21.165Z,31.87
2023-05-01T08:51:54.344Z,33.70
2023-05-01T08:54:23.636Z,33.13
2023-05-01T08:56:54.992Z,36.50
2023-05-01T08:59:32.141Z,36.77
2023-05-01T09:02:48.571Z,35.43
2023-05-01T09:05:46.760Z,30.63
2023-05-01T09:08:15.400Z,26.93
2023-05-01T09:14:27.155Z,32.73
2023-05-01T09:16:57.150Z,27.10
2023-05-01T09:19:26.824Z,27.60
2023-05-01T09:21:57.697Z,28.10
2023-05-01T09:24:27.010Z,26.90
2023-05-01T09:26:57.913Z,25.90
2023-05-01T09:33:14.863Z,29.90
2023-05-01T09:39:26.254Z,23.93
2023-05-01T09:41:57.715Z,28.53
2023-05-01T09:44:27.000Z,28.47
2023-05-01T09:46:56.016Z,22.73
2023-05-01T09:49:46.626Z,25.63
2023-05-01T09:52:15.571Z,25.60
2023-05-01T09:54:45.744Z,25.27
2023-05-01T09:57:14.633Z,18.80
2023-05-01T09:59:43.216Z,24.03
2023-05-01T10:02:30.284Z,20.60
2023-05-01T10:05:00.519Z,16.47
2023-05-01T10:07:31.273Z,17.23
2023-05-01T10:10:16.542Z,14.20
2023-05-01T10:12:47.415Z,13.77
2023-05-01T10:15:25.363Z,13.67
2023-05-01T10:17:55.768Z,14.90
2023-05-01T10:20:50.996Z,13.20
2023-05-01T10:23:19.477Z,14.83
2023-05-01T10:25:52.431Z,12.60
2023-05-01T10:28:21.910Z,14.93
2023-05-01T10:30:51.253Z,12.43
2023-05-01T10:33:19.937Z,11.13
2023-05-01T10:35:55.938Z,10.57
2023-05-01T10:38:28.143Z,10.93
2023-05-01T10:40:58.203Z,11.03
2023-05-01T10:43:28.627Z,11.53
2023-05-01T10:46:29.912Z,13.37
2023-05-01T10:48:59.521Z,13.67
2023-05-01T10:51:28.685Z,13.73
2023-05-01T10:54:25.827Z,14.00
2023-05-01T10:56:56.545Z,15.33
2023-05-01T10:59:25.043Z,14.80
2023-05-01T11:01:54.656Z,17.63
2023-05-01T11:04:54.162Z,17.60
2023-05-01T11:07:24.443Z,14.77
2023-05-01T11:09:55.903Z,20.80
2023-05-01T11:12:51.252Z,16.53
2023-05-01T11:15:34.007Z,21.27
2023-05-01T11:18:03.800Z,17.47
2023-05-01T11:20:49.437Z,16.60
2023-05-01T11:23:19.868Z,17.73
2023-05-01T11:25:52.555Z,15.00
2023-05-01T11:28:22.898Z,18.43
2023-05-01T11:30:51.349Z,17.83
2023-05-01T11:33:28.983Z,16.67
2023-05-01T11:36:05.009Z,17.83
2023-05-01T11:38:33.525Z,17.07
2023-05-01T11:41:04.141Z,15.87
2023-05-01T11:43:34.335Z,16.67
2023-05-01T11:46:05.150Z,15.53
2023-05-01T11:48:35.674Z,19.90
2023-05-01T11:51:13.796Z,14.53
2023-05-01T11:53:42.170Z,16.80
2023-05-01T11:56:26.524Z,15.40
2023-05-01T11:58:58.951Z,14.57
2023-05-01T12:01:36.515Z,18.77
2023-05-01T12:04:05.813Z,17.10
2023-05-01T12:06:40.513Z,17.97
2023-05-01T12:09:09.694Z,17.53
2023-05-01T12:11:38.567Z,16.53
2023-05-01T12:14:08.460Z,17.10
2023-05-01T12:16:37.873Z,23.47
2023-05-01T12:19:06.815Z,19.30
2023-05-01T12:21:35.260Z,19.83
2023-05-01T12:24:09.646Z,20.53
2023-05-01T12:26:38.192Z,19.00
2023-05-01T12:29:09.088Z,20.77
2023-05-01T12:31:38.550Z,23.23
2023-05-01T12:34:08.017Z,22.43
2023-05-01T12:36:38.010Z,24.53
2023-05-01T12:39:08.417Z,26.77
2023-05-01T12:41:42.262Z,20.33
2023-05-01T12:44:23.791Z,21.70
2023-05-01T12:46:56.453Z,20.63
2023-05-01T12:49:25.361Z,22.00
2023-05-01T12:51:54.991Z,23.80
2023-05-01T12:54:24.835Z,23.20
2023-05-01T12:56:54.544Z,23.20
2023-05-01T12:59:26.365Z,23.53
2023-05-01T13:02:01.953Z,22.97
2023-05-01T13:04:30.834Z,24.93
2023-05-01T13:06:59.873Z,26.50
2023-05-01T13:09:31.284Z,23.37
2023-05-01T13:12:02.641Z,28.33
2023-05-01T13:14:38.375Z,26.47
2023-05-01T13:17:09.459Z,23.33
2023-05-01T13:19:38.143Z,24.63
2023-05-01T13:22:07.205Z,26.23
2023-05-01T13:24:40.173Z,25.57
2023-05-01T13:27:10.474Z,27.33
2023-05-01T13:29:41.790Z,25.37
2023-05-01T13:32:12.781Z,25.63
2023-05-01T13:34:43.892Z,22.67
2023-05-01T13:37:14.608Z,22.53
2023-05-01T13:39:43.783Z,23.70
2023-05-01T13:42:13.677Z,21.67
2023-05-01T13:44:52.192Z,23.50
2023-05-01T13:47:20.851Z,24.47
2023-05-01T13:49:49.212Z,21.33
2023-05-01T13:52:19.289Z,20.80
2023-05-01T13:54:48.812Z,16.20
2023-05-01T13:57:18.006Z,12.97
2023-05-01T13:59:48.884Z,14.57
2023-05-01T14:02:22.644Z,16.30
2023-05-01T14:04:51.747Z,17.63
2023-05-01T14:07:20.918Z,15.40
2023-05-01T14:09:55.331Z,17.40
2023-05-01T14:12:27.077Z,17.87
2023-05-01T14:14:56.983Z,18.27
2023-05-01T14:17:31.552Z,20.37
2023-05-01T14:20:00.133Z,14.90
2023-05-01T14:22:31.385Z,15.73
2023-05-01T14:25:00.166Z,16.00
2023-05-01T14:27:29.124Z,15.97
2023-05-01T14:29:58.617Z,16.80
2023-05-01T14:32:28.442Z,12.97
2023-05-01T14:34:57.791Z,17.47
2023-05-01T14:37:26.782Z,18.70
2023-05-01T14:39:54.872Z,17.37
2023-05-01T14:42:23.253Z,20.17
2023-05-01T14:44:51.665Z,21.20
2023-05-01T14:47:22.829Z,17.03
2023-05-01T14:49:54.535Z,17.27
2023-05-01T14:52:22.813Z,17.40
2023-05-01T14:54:53.199Z,17.33
2023-05-01T14:57:21.686Z,17.90
2023-05-01T14:59:49.869Z,17.83
2023-05-01T15:02:18.105Z,8.70
2023-05-01T15:04:48.021Z,8.33
2023-05-01T15:07:16.630Z,11.23
2023-05-01T15:09:46.310Z,11.80
2023-05-01T15:12:14.898Z,9.97
2023-05-01T15:14:43.055Z,11.23
2023-05-01T15:17:11.758Z,12.03
2023-05-01T15:19:40.137Z,12.47
2023-05-01T15:22:09.702Z,14.03
2023-05-01T15:24:39.197Z,12.93
2023-05-01T15:27:08.141Z,11.97
2023-05-01T15:29:36.325Z,12.87
2023-05-01T15:32:12.028Z,11.50
2023-05-01T15:34:41.412Z,15.80
2023-05-01T15:37:10.987Z,13.57
2023-05-01T15:39:40.377Z,11.93
2023-05-01T15:42:08.896Z,12.70
2023-05-01T15:44:36.995Z,13.77
2023-05-01T15:47:05.394Z,11.70
2023-05-01T15:49:35.048Z,12.10
2023-05-01T15:52:03.250Z,13.83
2023-05-01T15:54:32.759Z,10.43
2023-05-01T15:57:03.333Z,16.07
2023-05-01T15:59:31.726Z,15.10
2023-05-01T16:01:59.920Z,13.33
2023-05-01T16:04:28.442Z,11.57
2023-05-01T16:06:56.521Z,11.87
2023-05-01T16:09:30.516Z,10.80
2023-05-01T16:12:00.791Z,9.57
2023-05-01T16:14:29.691Z,12.53
2023-05-01T16:16:58.007Z,10.93
2023-05-01T16:19:29.669Z,13.27
2023-05-01T16:21:57.875Z,11.47
2023-05-01T16:24:44.965Z,10.03
2023-05-01T16:27:15.848Z,9.73
2023-05-01T16:29:44.012Z,8.60
2023-05-01T16:32:13.931Z,10.20
2023-05-01T16:34:42.178Z,9.37
2023-05-01T16:37:10.304Z,8.90
2023-05-01T16:39:39.125Z,8.83
2023-05-01T16:42:07.338Z,8.57
2023-05-01T16:44:38.122Z,7.97
2023-05-01T16:47:08.164Z,12.33
2023-05-01T16:49:41.129Z,10.17
2023-05-01T16:52:13.607Z,4.60
2023-05-01T16:54:42.255Z,6.03
2023-05-01T16:57:10.961Z,4.87
2023-05-01T16:59:40.681Z,7.60
2023-05-01T17:02:08.917Z,6.37
2023-05-01T17:04:37.363Z,4.53
2023-05-01T17:07:05.725Z,6.30
2023-05-01T17:09:34.369Z,4.33
2023-05-01T17:12:03.653Z,4.70
2023-05-01T17:14:31.970Z,6.23
2023-05-01T17:17:01.965Z,4.97
2023-05-01T17:19:30.239Z,5.13
2023-05-01T17:21:59.234Z,6.07
2023-05-01T17:24:27.926Z,12.80
2023-05-01T17:26:57.282Z,8.50
2023-05-01T17:29:25.744Z,7.50
2023-05-01T17:31:54.014Z,5.30
2023-05-01T17:34:23.679Z,8.90
2023-05-01T17:36:51.886Z,7.17
2023-05-01T17:39:21.714Z,7.07
2023-05-01T17:41:50.143Z,7.03
2023-05-01T17:44:18.296Z,5.70
2023-05-01T17:46:46.433Z,6.30
2023-05-01T17:49:15.127Z,7.37
2023-05-01T17:51:45.555Z,8.87
2023-05-01T17:54:16.627Z,10.17
2023-05-01T17:56:44.932Z,9.93
2023-05-01T17:59:13.664Z,8.93
2023-05-01T18:01:41.777Z,13.70
2023-05-01T18:04:10.878Z,10.57
2023-05-01T18:06:39.722Z,9.80
2023-05-01T18:09:10.472Z,12.67
2023-05-01T18:11:38.703Z,9.80
2023-05-01T18:14:06.883Z,10.37
2023-05-01T18:16:35.074Z,10.27
2023-05-01T18:19:03.506Z,9.70
2023-05-01T18:21:31.809Z,9.03
2023-05-01T18:23:59.910Z,11.23
2023-05-01T18:26:29.668Z,8.00
2023-05-01T18:28:57.905Z,7.53
2023-05-01T18:31:26.231Z,8.60
2023-05-01T18:33:55.211Z,7.30
2023-05-01T18:36:23.469Z,17.80
2023-05-01T18:38:51.644Z,6.13
2023-05-01T18:41:20.415Z,9.47
2023-05-01T18:43:54.346Z,9.70
2023-05-01T18:46:24.835Z,7.70
2023-05-01T18:48:53.243Z,6.33
2023-05-01T18:51:21.507Z,7.20
2023-05-01T18:53:49.792Z,7.30
2023-05-01T18:56:18.134Z,6.60
2023-05-01T18:58:46.302Z,8.27
2023-05-01T19:01:16.018Z,10.40
2023-05-01T19:03:44.284Z,7.73
2023-05-01T19:06:12.756Z,9.00
2023-05-01T19:08:41.222Z,11.00
2023-05-01T19:11:09.700Z,11.07
2023-05-01T19:13:38.240Z,9.43
2023-05-01T19:16:06.936Z,10.20
2023-05-01T19:18:38.374Z,17.40
2023-05-01T19:21:06.781Z,16.73
2023-05-01T19:23:37.544Z,16.77
2023-05-01T19:26:08.037Z,19.23
2023-05-01T19:28:38.309Z,20.00
2023-05-01T19:31:07.645Z,21.33
2023-05-01T19:33:37.564Z,21.20
2023-05-01T19:36:06.331Z,21.37
2023-05-01T19:38:34.494Z,19.67
2023-05-01T19:41:02.993Z,23.87
2023-05-01T19:43:31.188Z,17.70
2023-05-01T19:45:59.352Z,23.10
2023-05-01T19:48:28.034Z,18.37
2023-05-01T19:50:57.541Z,17.97
2023-05-01T19:53:27.797Z,16.47
2023-05-01T19:55:56.214Z,17.73
2023-05-01T19:58:26.660Z,25.90
2023-05-01T20:00:58.335Z,19.23
2023-05-01T20:03:26.869Z,20.50
2023-05-01T20:05:55.101Z,18.90
2023-05-01T20:08:24.754Z,21.10
2023-05-01T20:10:53.011Z,20.07
2023-05-01T20:13:21.114Z,18.00
2023-05-01T20:15:49.472Z,18.50
2023-05-01T20:18:18.156Z,20.03
2023-05-01T20:20:46.353Z,25.53
2023-05-01T20:23:16.528Z,20.60
2023-05-01T20:25:47.814Z,21.13
2023-05-01T20:28:15.933Z,21.10
2023-05-01T20:30:45.089Z,21.23
2023-05-01T20:33:14.049Z,21.33
2023-05-01T20:35:42.498Z,23.53
2023-05-01T20:38:10.841Z,25.07
2023-05-01T20:40:41.091Z,21.50
2023-05-01T20:43:11.519Z,22.73
2023-05-01T20:45:40.178Z,20.27
2023-05-01T20:48:08.550Z,25.87
2023-05-01T20:50:36.916Z,23.40
2023-05-01T20:53:05.159Z,20.47
2023-05-01T20:55:33.322Z,20.70
2023-05-01T20:58:01.568Z,21.80
2023-05-01T21:00:31.572Z,30.97
2023-05-01T21:03:00.433Z,29.60
2023-05-01T21:05:28.865Z,19.43
2023-05-01T21:07:58.125Z,21.13
2023-05-01T21:10:26.278Z,26.93
2023-05-01T21:12:56.405Z,22.77
2023-05-01T21:15:24.809Z,28.87
2023-05-01T21:17:54.489Z,27.37
2023-05-01T21:20:31.072Z,22.23
2023-05-01T21:23:00.107Z,20.50
2023-05-01T21:25:30.046Z,23.20
2023-05-01T21:28:02.097Z,26.93
2023-05-01T21:30:33.270Z,24.50
2023-05-01T21:33:04.027Z,29.03
2023-05-01T21:35:32.838Z,25.13
2023-05-01T21:38:01.237Z,25.80
2023-05-01T21:40:29.396Z,25.10
2023-05-01T21:42:57.853Z,27.67
2023-05-01T21:45:26.572Z,24.60
2023-05-01T21:47:54.749Z,36.40
2023-05-01T21:50:24.407Z,25.77
2023-05-01T21:52:52.604Z,32.57
2023-05-01T21:55:22.721Z,28.30
2023-05-01T21:57:51.054Z,26.07
2023-05-01T22:00:20.047Z,24.47
2023-05-01T22:02:50.127Z,24.37
2023-05-01T22:05:22.571Z,27.50
2023-05-01T22:07:54.118Z,23.87
2023-05-01T22:10:22.506Z,25.60
2023-05-01T22:12:50.638Z,24.50
2023-05-01T22:15:19.088Z,29.33
2023-05-01T22:17:47.334Z,27.00
2023-05-01T22:20:15.774Z,30.47
2023-05-01T22:22:44.293Z,32.50
2023-05-01T22:25:13.886Z,25.33
2023-05-01T22:27:42.539Z,30.17
2023-05-01T22:30:12.071Z,30.10
2023-05-01T22:32:40.264Z,30.80
2023-05-01T22:35:09.426Z,29.87
2023-05-01T22:37:37.800Z,35.17
2023-05-01T22:40:07.155Z,27.37
2023-05-01T22:42:36.668Z,32.03
2023-05-01T22:45:05.373Z,31.83
2023-05-01T22:47:33.613Z,27.67
2023-05-01T22:50:02.321Z,33.07
2023-05-01T22:52:30.981Z,29.77
2023-05-01T22:54:59.109Z,35.37
2023-05-01T22:57:27.235Z,26.63
2023-05-01T22:59:57.124Z,36.77
2023-05-01T23:02:25.706Z,29.67
2023-05-01T23:04:53.878Z,32.20
2023-05-01T23:07:22.455Z,30.83
2023-05-01T23:09:50.803Z,27.40
2023-05-01T23:12:23.274Z,30.90
2023-05-01T23:14:51.475Z,33.80
2023-05-01T23:17:21.617Z,30.13
2023-05-01T23:19:49.861Z,31.83
2023-05-01T23:22:18.903Z,31.53
2023-05-01T23:24:49.262Z,36.73
2023-05-01T23:27:18.690Z,34.97
2023-05-01T23:29:55.076Z,39.77
2023-05-01T23:32:29.511Z,43.00
2023-05-01T23:35:04.411Z,39.10
2023-05-01T23:37:32.481Z,39.17
2023-05-01T23:40:02.089Z,43.80
2023-05-01T23:42:30.675Z,41.47
2023-05-01T23:44:59.132Z,44.43
2023-05-01T23:47:29.001Z,42.10
2023-05-01T23:49:57.630Z,41.33
2023-05-01T23:52:26.119Z,40.27
2023-05-01T23:54:54.544Z,46.87
2023-05-01T23:57:22.705Z,36.73
2023-05-01T23:59:50.930Z,41.87
